Time;durP1;ratioP1;P1;durP2;ratioP2;P2;SDS_P1;SDS_P2;PMS_P1;PMS_P2;Temp;Humidity;BMP_temperature;BMP_pressure;BME280_temperature;BME280_humidity;BME280_pressure;Samples;Min_cycle;Max_cycle;Signal;HPM_P1;HPM_P2
2022/12/06 00:01:35;;;;;;;8.57;4.63;;;4.20;99.90;;;7.77;54.85;97796.81;5003696;28;20038;-53
2022/12/06 00:04:07;;;;;;;6.30;3.83;;;4.10;99.90;;;7.73;54.34;97795.44;5004762;28;20046;-54
2022/12/06 00:06:42;;;;;;;6.60;4.47;;;4.10;99.90;;;7.70;54.47;97801.03;5003823;28;20042;-55
2022/12/06 00:09:29;;;;;;;6.30;4.13;;;4.10;99.90;;;7.64;54.72;97807.72;4997387;28;20240;-51
2022/12/06 00:11:58;;;;;;;6.40;4.23;;;4.10;99.90;;;7.59;54.55;97807.28;5004691;28;20239;-54
2022/12/06 00:14:27;;;;;;;4.50;3.43;;;4.00;99.90;;;7.57;55.00;97808.41;5019912;28;20378;-54
2022/12/06 00:16:55;;;;;;;6.87;3.70;;;4.00;99.90;;;7.56;54.90;97806.72;5003434;28;20221;-50
2022/12/06 00:19:23;;;;;;;5.83;4.27;;;4.00;99.90;;;7.56;55.03;97801.41;5003231;28;20038;-54
2022/12/06 00:21:51;;;;;;;6.83;4.30;;;4.00;99.90;;;7.58;55.05;97805.63;5003573;28;20050;-55
2022/12/06 00:24:22;;;;;;;7.37;5.17;;;4.00;99.90;;;7.59;55.03;97804.63;5003148;28;20048;-50
2022/12/06 00:26:50;;;;;;;6.23;4.47;;;4.00;99.90;;;7.61;55.10;97799.19;5003427;28;20064;-55
2022/12/06 00:29:22;;;;;;;6.43;4.50;;;4.00;99.90;;;7.61;54.57;97796.56;5003223;28;20046;-54
2022/12/06 00:31:50;;;;;;;5.57;3.97;;;4.00;99.90;;;7.62;54.45;97800.88;5003280;28;20054;-55
2022/12/06 00:34:18;;;;;;;5.13;3.57;;;3.90;99.80;;;7.60;54.60;97797.50;5004510;28;20054;-53
2022/12/06 00:36:46;;;;;;;6.90;4.00;;;4.00;99.90;;;7.55;54.54;97787.34;5004516;28;20052;-53
2022/12/06 00:39:16;;;;;;;4.67;3.67;;;3.90;99.90;;;7.55;55.02;97789.16;5003255;28;20053;-53
2022/12/06 00:41:44;;;;;;;5.67;3.33;;;3.90;99.90;;;7.55;54.83;97789.16;5004006;28;20218;-53
2022/12/06 00:44:12;;;;;;;7.97;3.93;;;3.90;99.90;;;7.53;54.93;97794.59;5003153;28;20042;-54
2022/12/06 00:46:40;;;;;;;4.93;3.43;;;3.90;99.90;;;7.52;54.88;97802.69;5003417;28;20054;-53
2022/12/06 00:49:09;;;;;;;6.73;4.10;;;3.90;99.90;;;7.49;54.73;97798.50;5002926;28;20042;-55
2022/12/06 00:51:38;;;;;;;4.80;3.63;;;3.80;99.90;;;7.47;54.84;97801.28;5003670;28;20053;-54
2022/12/06 00:54:07;;;;;;;5.93;4.03;;;3.80;99.90;;;7.48;54.66;97800.31;5002701;28;20053;-53
2022/12/06 00:56:36;;;;;;;4.90;3.60;;;3.80;99.90;;;7.45;55.11;97787.34;5003886;28;20046;-55
2022/12/06 00:59:04;;;;;;;5.23;3.40;;;3.80;99.90;;;7.45;55.20;97789.97;5002261;28;20052;-54
2022/12/06 01:01:34;;;;;;;4.87;3.13;;;3.80;99.90;;;7.45;54.98;97787.34;4999838;28;20049;-60
2022/12/06 01:04:05;;;;;;;5.27;3.63;;;3.80;99.90;;;7.47;55.27;97784.56;5003842;28;20042;-60
2022/12/06 01:06:35;;;;;;;6.57;4.33;;;3.80;99.90;;;7.45;54.75;97783.84;5002688;28;20060;-60
2022/12/06 01:09:08;;;;;;;5.17;3.40;;;3.80;99.90;;;7.46;55.00;97783.72;5002511;28;20048;-60
2022/12/06 01:11:36;;;;;;;5.93;3.73;;;3.80;99.90;;;7.48;55.19;97783.56;5003340;28;20050;-60
2022/12/06 01:14:04;;;;;;;5.57;4.27;;;3.80;99.90;;;7.49;55.22;97785.25;5002522;28;20046;-54
2022/12/06 01:16:33;;;;;;;5.07;3.80;;;3.90;99.90;;;7.52;54.78;97784.97;5002326;28;20394;-54
2022/12/06 01:19:04;;;;;;;5.67;4.10;;;3.90;99.90;;;7.53;54.85;97778.69;5003699;28;20050;-52
2022/12/06 01:21:32;;;;;;;5.73;3.53;;;3.90;99.90;;;7.56;55.38;97788.16;5003305;28;20256;-51
2022/12/06 01:24:00;;;;;;;6.17;3.70;;;3.90;99.90;;;7.59;55.11;97787.91;5003353;28;20053;-53
2022/12/06 01:26:31;;;;;;;5.77;3.90;;;4.00;99.90;;;7.59;55.07;97783.44;5002217;28;20046;-52
2022/12/06 01:29:01;;;;;;;5.43;3.97;;;4.00;99.90;;;7.62;55.38;97788.47;5002127;28;20060;-54
2022/12/06 01:31:29;;;;;;;4.77;3.53;;;4.00;99.90;;;7.60;55.18;97778.97;5001962;28;20046;-60
2022/12/06 01:34:12;;;;;;;5.43;4.27;;;4.00;99.90;;;7.62;55.30;97782.34;5003014;28;20046;-60
2022/12/06 01:36:40;;;;;;;6.57;4.67;;;4.00;99.90;;;7.60;55.12;97781.63;5002377;28;20046;-60
2022/12/06 01:39:09;;;;;;;6.77;3.63;;;4.00;99.90;;;7.60;55.48;97785.13;5001669;28;20375;-60
2022/12/06 01:41:38;;;;;;;5.40;3.90;;;4.00;99.90;;;7.59;55.00;97779.97;5001784;28;20048;-60
2022/12/06 01:44:29;;;;;;;5.43;4.10;;;4.00;99.90;;;7.61;55.20;97783.31;5002993;28;20042;-59
2022/12/06 01:46:57;;;;;;;5.63;4.23;;;4.00;99.90;;;7.54;54.99;97790.97;5002784;28;20054;-59
2022/12/06 01:49:33;;;;;;;7.17;4.50;;;3.90;99.90;;;7.53;55.35;97786.66;5001451;28;20065;-60
2022/12/06 01:52:06;;;;;;;6.17;3.90;;;3.90;99.90;;;7.56;55.50;97788.16;5003410;28;20057;-60
2022/12/06 01:54:36;;;;;;;5.53;3.83;;;3.90;99.90;;;7.62;55.07;97779.69;5002034;28;20056;-60
2022/12/06 01:57:07;;;;;;;6.23;4.23;;;3.90;99.90;;;7.63;55.31;97784.00;5001849;28;20046;-60
2022/12/06 01:59:36;;;;;;;6.03;4.07;;;4.00;99.90;;;7.67;55.43;97774.78;5001328;28;20264;-60
2022/12/06 02:02:04;;;;;;;5.50;4.17;;;4.10;99.90;;;7.71;55.70;97775.34;5001967;28;20104;-60
2022/12/06 02:04:32;;;;;;;7.73;5.13;;;4.10;99.90;;;7.73;55.62;97774.22;5002045;28;20042;-60
2022/12/06 02:07:01;;;;;;;6.13;4.37;;;4.20;99.90;;;7.78;55.43;97773.81;5002662;28;20260;-60
2022/12/06 02:09:29;;;;;;;5.87;3.73;;;4.20;99.90;;;7.82;55.41;97769.91;5000988;28;20365;-60
2022/12/06 02:11:57;;;;;;;6.20;4.33;;;4.30;99.90;;;7.82;54.95;97770.75;5017647;28;20054;-61
2022/12/06 02:14:32;;;;;;;6.17;3.87;;;4.30;99.90;;;7.80;55.35;97766.56;5001636;28;20046;-60
2022/12/06 02:17:41;;;;;;;5.90;4.37;;;4.20;99.90;;;7.79;55.16;97765.75;5001430;28;20046;-60
2022/12/06 02:20:31;;;;;;;5.43;3.57;;;4.20;99.90;;;7.76;55.11;97766.00;5002028;28;20052;-60
2022/12/06 02:23:14;;;;;;;7.80;4.10;;;4.20;99.90;;;7.71;55.13;97767.41;5002913;28;20057;-60
2022/12/06 02:26:16;;;;;;;5.73;4.33;;;4.10;99.90;;;7.61;55.13;97756.81;5002408;28;20056;-60
2022/12/06 02:29:09;;;;;;;7.17;4.07;;;4.00;99.90;;;7.57;55.28;97758.91;4999008;28;20050;-60
2022/12/06 02:31:57;;;;;;;6.43;4.20;;;4.00;99.90;;;7.51;55.80;97756.81;4997622;28;20054;-60
2022/12/06 02:34:41;;;;;;;6.10;4.40;;;3.90;99.90;;;7.41;55.36;97758.63;4996044;28;20050;-60
2022/12/06 02:37:32;;;;;;;6.88;4.57;;;3.80;99.90;;;7.45;55.70;97757.38;5000658;28;20047;-60
2022/12/06 02:40:14;;;;;;;7.50;4.43;;;3.80;99.90;;;7.49;55.37;97749.00;5001140;28;20050;-60
2022/12/06 02:43:10;;;;;;;5.63;4.23;;;3.90;99.90;;;7.48;55.69;97752.63;5001689;28;20046;-60
2022/12/06 02:45:55;;;;;;;5.93;4.07;;;3.90;99.90;;;7.50;55.27;97755.13;5012963;28;20056;-60
2022/12/06 02:48:25;;;;;;;8.40;4.30;;;3.90;99.90;;;7.54;55.56;97751.25;4998689;28;20042;-60
2022/12/06 02:51:02;;;;;;;5.43;4.33;;;3.90;99.90;;;7.59;55.22;97749.00;5004735;28;20050;-60
2022/12/06 02:53:35;;;;;;;6.23;4.73;;;3.90;99.90;;;7.62;55.13;97746.06;4997696;28;20054;-59
2022/12/06 02:56:04;;;;;;;5.95;4.40;;;4.00;99.90;;;7.63;55.37;97747.72;5005306;28;20047;-60
2022/12/06 02:58:36;;;;;;;6.57;5.03;;;4.00;99.90;;;7.65;54.88;97743.13;5005153;28;20345;-60
2022/12/06 03:01:14;;;;;;;7.57;4.33;;;4.00;99.90;;;7.71;55.31;97749.69;5005709;28;20042;-60
2022/12/06 03:04:13;;;;;;;6.77;4.20;;;4.10;99.90;;;7.72;55.13;97740.78;5005182;28;20053;-60
2022/12/06 03:07:14;;;;;;;6.17;4.00;;;4.10;99.90;;;7.73;54.99;97739.78;5001631;28;20349;-60
2022/12/06 03:10:13;;;;;;;6.10;4.20;;;4.10;99.90;;;7.75;55.61;97742.28;5014990;28;20053;-60
2022/12/06 03:13:17;;;;;;;6.83;4.67;;;4.20;99.90;;;7.75;55.44;97745.78;5016513;28;20054;-60
2022/12/06 03:15:58;;;;;;;6.35;4.35;;;4.20;99.90;;;7.78;55.20;97745.50;5015377;28;20044;-60
2022/12/06 03:18:31;;;;;;;5.60;4.30;;;4.20;99.90;;;7.79;54.98;97748.97;4998469;28;20057;-59
2022/12/06 03:21:11;;;;;;;5.30;3.87;;;4.20;99.90;;;7.78;55.37;97744.66;5004300;28;20248;-60
2022/12/06 03:23:44;;;;;;;4.40;3.40;;;4.20;99.90;;;7.78;55.15;97744.66;5005876;28;20062;-60
2022/12/06 03:26:22;;;;;;;6.43;3.60;;;4.10;99.90;;;7.76;54.98;97739.50;5004280;28;20058;-60
2022/12/06 03:28:54;;;;;;;4.60;3.63;;;4.10;99.90;;;7.77;54.84;97737.69;5004868;28;20068;-60
2022/12/06 03:31:27;;;;;;;5.77;4.07;;;4.10;99.90;;;7.78;55.19;97731.41;5004241;28;20050;-60
2022/12/06 03:34:33;;;;;;;5.80;4.10;;;4.10;99.90;;;7.75;55.14;97729.88;5003902;28;20054;-60
2022/12/06 03:37:04;;;;;;;7.13;4.47;;;4.20;99.90;;;7.81;55.50;97731.13;5004146;28;20051;-60
2022/12/06 03:40:06;;;;;;;5.47;3.63;;;4.20;99.90;;;7.78;55.38;97723.47;5004160;28;20054;-60
2022/12/06 03:42:35;;;;;;;4.87;3.60;;;4.20;99.90;;;7.81;54.91;97724.03;4999573;28;20042;-60
2022/12/06 03:45:04;;;;;;;5.77;3.90;;;4.20;99.90;;;7.82;55.08;97722.19;5005748;28;20053;-60
2022/12/06 03:48:09;;;;;;;4.87;3.30;;;4.30;99.90;;;7.83;55.18;97719.41;5005602;28;20240;-60
2022/12/06 03:51:03;;;;;;;4.05;3.40;;;4.30;99.90;;;7.88;54.97;97721.63;4999734;28;20050;-60
2022/12/06 03:53:31;;;;;;;4.73;3.73;;;4.30;99.90;;;7.93;54.78;97722.06;4998379;28;20260;-60
2022/12/06 03:56:05;;;;;;;5.73;3.83;;;4.40;99.90;;;7.92;55.09;97715.06;5003910;28;20289;-60
2022/12/06 03:58:33;;;;;;;6.75;4.20;;;4.30;99.90;;;7.91;55.49;97715.19;5002166;28;20264;-60
2022/12/06 04:01:03;;;;;;;6.03;4.40;;;4.30;99.90;;;7.91;55.22;97713.41;5003207;28;20349;-60
2022/12/06 04:03:31;;;;;;;5.57;4.20;;;4.30;99.90;;;7.94;54.99;97712.28;5004163;28;20053;-60
2022/12/06 04:06:05;;;;;;;7.80;4.37;;;4.40;99.90;;;7.96;54.94;97711.16;5004658;28;20049;-60
2022/12/06 04:08:33;;;;;;;5.57;4.33;;;4.40;99.90;;;7.95;55.28;97712.13;5005014;28;20049;-61
2022/12/06 04:11:02;;;;;;;7.60;4.27;;;4.40;99.90;;;7.91;55.38;97713.41;5003330;28;20112;-60
2022/12/06 04:13:30;;;;;;;5.90;4.27;;;4.30;99.90;;;7.92;55.06;97717.72;5003771;28;20074;-59
2022/12/06 04:16:00;;;;;;;6.13;3.90;;;4.30;99.90;;;7.91;55.19;97712.53;5003402;28;20390;-59
2022/12/06 04:18:28;;;;;;;5.37;3.50;;;4.30;99.90;;;7.88;55.18;97703.06;5004820;28;20046;-51
2022/12/06 04:23:51;;;;;;;5.10;3.70;;;4.20;99.90;;;7.86;55.30;97702.38;5003814;28;20050;-55
2022/12/06 04:26:21;;;;;;;7.30;4.40;;;4.20;99.90;;;7.86;55.52;97699.72;5004797;28;20050;-52
2022/12/06 04:39:57;;;;;;;4.13;3.13;;;4.30;99.90;;;7.88;55.27;97692.47;5003862;28;20038;-54
2022/12/06 04:45:12;;;;;;;7.87;4.37;;;4.30;99.90;;;7.90;55.55;97685.22;5004049;28;20058;-54
2022/12/06 04:47:40;;;;;;;5.97;4.47;;;4.30;99.90;;;7.90;55.32;97679.91;5004212;28;20050;-55
2022/12/06 04:50:08;;;;;;;5.40;3.53;;;4.30;99.90;;;7.91;55.32;97673.66;5003591;28;20048;-52
2022/12/06 04:52:37;;;;;;;5.47;3.40;;;4.30;99.90;;;7.91;54.94;97675.44;5004050;28;20046;-54
2022/12/06 04:55:05;;;;;;;6.70;4.20;;;4.30;99.90;;;7.95;55.33;97682.13;5004243;28;20076;-55
2022/12/06 04:57:33;;;;;;;4.53;3.53;;;4.30;99.90;;;7.95;54.87;97682.13;5002748;28;20276;-53
2022/12/06 05:00:01;;;;;;;9.83;4.23;;;4.30;99.90;;;7.94;55.20;97678.63;5003470;28;20038;-51
2022/12/06 05:02:29;;;;;;;6.53;4.50;;;4.30;99.90;;;7.94;54.82;97677.81;5002738;28;20068;-54
2022/12/06 05:04:57;;;;;;;7.53;3.90;;;4.30;99.90;;;7.94;55.29;97683.94;5001281;28;20050;-55
2022/12/06 05:07:25;;;;;;;6.77;3.67;;;4.30;99.90;;;7.95;54.95;97682.13;5003637;28;20341;-55
2022/12/06 05:09:52;;;;;;;5.77;4.37;;;4.40;99.90;;;7.95;55.12;97679.47;5003150;28;20108;-55
2022/12/06 05:12:20;;;;;;;6.47;4.63;;;4.30;99.90;;;7.96;54.97;97670.56;4994973;28;20052;-54
2022/12/06 05:14:48;;;;;;;6.83;4.23;;;4.30;99.90;;;7.96;55.26;97670.56;5003503;28;20050;-55
2022/12/06 05:17:16;;;;;;;8.07;4.73;;;4.40;99.90;;;7.99;55.08;97680.88;5018788;28;20058;-52
2022/12/06 05:19:44;;;;;;;7.07;5.77;;;4.40;99.90;;;7.98;55.32;97680.03;5003097;28;20244;-55
2022/12/06 05:22:11;;;;;;;7.93;5.00;;;4.40;99.90;;;8.00;55.10;97680.72;5003121;28;20042;-49
2022/12/06 05:24:39;;;;;;;7.20;4.50;;;4.40;99.90;;;8.02;55.25;97677.91;5003321;28;20046;-54
2022/12/06 05:27:07;;;;;;;7.50;4.90;;;4.40;99.90;;;8.03;55.39;97679.59;5003352;28;20252;-54
2022/12/06 05:29:35;;;;;;;6.63;3.90;;;4.40;99.90;;;8.01;55.23;97678.91;5002292;28;20054;-55
2022/12/06 05:32:03;;;;;;;6.67;4.47;;;4.40;99.90;;;8.01;55.45;97674.44;5003300;28;20356;-53
2022/12/06 05:34:31;;;;;;;9.53;4.00;;;4.40;99.90;;;8.00;55.11;97671.94;5003205;28;20046;-50
2022/12/06 05:36:59;;;;;;;7.43;5.10;;;4.40;99.90;;;8.02;55.27;97677.91;5002937;28;20272;-53
2022/12/06 05:39:28;;;;;;;7.57;5.00;;;4.40;99.90;;;8.06;55.00;97676.66;5002843;28;20043;-55
2022/12/06 05:41:55;;;;;;;6.67;4.27;;;4.50;99.90;;;8.09;55.34;97679.03;5002299;28;20366;-52
2022/12/06 05:44:23;;;;;;;7.63;4.47;;;4.60;99.90;;;8.12;55.30;97678.72;4995413;28;20123;-53
2022/12/06 05:46:51;;;;;;;6.87;4.50;;;4.60;99.90;;;8.12;54.99;97677.88;5002944;28;20046;-54
2022/12/06 05:49:19;;;;;;;8.27;4.93;;;4.60;99.90;;;8.12;55.48;97675.25;5002730;28;20060;-52
2022/12/06 05:51:47;;;;;;;7.13;4.60;;;4.50;99.90;;;8.13;54.90;97682.22;5003077;28;20352;-50
2022/12/06 05:54:15;;;;;;;6.87;4.63;;;4.50;99.90;;;8.11;54.97;97685.00;5002945;28;20046;-53
2022/12/06 05:56:42;;;;;;;7.13;4.70;;;4.50;99.90;;;8.10;55.05;97688.63;5003263;28;20056;-55
2022/12/06 05:59:10;;;;;;;7.30;4.87;;;4.50;99.90;;;8.11;55.21;97687.66;5002535;28;20050;-51
2022/12/06 06:01:38;;;;;;;7.50;5.53;;;4.50;99.90;;;8.11;54.88;97690.31;5002573;28;20103;-54
2022/12/06 06:04:06;;;;;;;10.20;5.47;;;4.50;99.90;;;8.09;55.26;97679.84;5002682;28;20257;-52
2022/12/06 06:06:34;;;;;;;6.80;5.53;;;4.50;99.90;;;8.05;55.29;97680.28;5002612;28;20268;-53
2022/12/06 06:09:02;;;;;;;9.63;5.73;;;4.40;99.90;;;8.05;54.76;97683.78;5000883;28;20342;-50
2022/12/06 06:11:29;;;;;;;9.23;6.30;;;4.40;99.90;;;8.03;55.35;97677.78;5002416;28;20039;-53
2022/12/06 06:13:57;;;;;;;9.53;5.80;;;4.40;99.90;;;8.05;54.97;97680.28;5001586;28;20390;-53
2022/12/06 06:16:25;;;;;;;8.87;5.60;;;4.40;99.90;;;8.04;54.94;97673.31;4994968;28;20042;-55
2022/12/06 06:18:53;;;;;;;11.33;4.83;;;4.40;99.90;;;8.03;55.00;97661.88;5017519;28;20051;-53
2022/12/06 06:21:21;;;;;;;5.83;4.43;;;4.40;99.90;;;8.00;54.70;97664.81;5001195;28;20042;-54
2022/12/06 06:23:49;;;;;;;7.97;4.87;;;4.40;99.90;;;7.98;55.18;97665.94;5002919;28;20056;-52
2022/12/06 06:26:16;;;;;;;7.17;4.63;;;4.30;99.90;;;7.97;54.79;97673.06;5002407;28;20340;-52
2022/12/06 06:28:44;;;;;;;8.73;6.00;;;4.30;99.90;;;7.94;55.24;97670.69;5002993;28;20054;-54
2022/12/06 06:31:12;;;;;;;8.93;6.23;;;4.30;99.90;;;7.94;55.12;97675.16;5017034;28;20352;-54
2022/12/06 06:33:40;;;;;;;7.47;5.70;;;4.30;99.90;;;7.93;54.85;97674.34;5002424;28;20052;-54
2022/12/06 06:36:08;;;;;;;7.83;5.17;;;4.30;99.90;;;7.96;54.75;97667.91;5000927;28;20050;-53
2022/12/06 06:38:36;;;;;;;5.93;4.30;;;4.30;99.90;;;7.97;54.96;97673.06;5002206;28;20054;-53
2022/12/06 06:41:05;;;;;;;14.43;5.40;;;4.40;99.90;;;7.99;55.12;97681.72;5001839;28;20226;-54
2022/12/06 06:43:33;;;;;;;10.20;6.50;;;4.40;99.90;;;8.00;55.23;97678.06;5001334;28;20057;-53
2022/12/06 06:46:05;;;;;;;8.63;6.03;;;4.40;99.90;;;8.02;54.76;97676.09;5001218;28;20050;-54
2022/12/06 06:48:37;;;;;;;6.30;5.50;;;4.40;99.90;;;8.05;54.79;97677.66;5001354;28;20374;-53
2022/12/06 06:51:09;;;;;;;6.43;4.93;;;4.40;99.90;;;8.06;54.65;97682.81;5001731;28;20053;-58
2022/12/06 06:53:38;;;;;;;8.50;5.27;;;4.40;99.90;;;7.98;54.58;97676.53;5002265;28;20054;-57
2022/12/06 06:56:06;;;;;;;6.43;5.23;;;4.30;99.90;;;7.91;54.88;97683.38;5017410;28;20258;-59
2022/12/06 06:58:34;;;;;;;6.50;4.60;;;4.20;99.90;;;7.81;55.12;97678.97;5000569;28;20046;-59
2022/12/06 07:01:04;;;;;;;5.50;4.83;;;4.10;99.90;;;7.80;55.69;97681.75;5001775;28;20057;-59
2022/12/06 07:03:33;;;;;;;7.47;5.97;;;4.10;99.90;;;7.82;54.87;97680.63;4998913;28;20096;-58
2022/12/06 07:06:08;;;;;;;10.13;6.93;;;4.20;99.90;;;7.72;55.68;97689.59;5001930;28;20053;-58
2022/12/06 07:08:38;;;;;;;10.00;8.80;;;4.10;99.90;;;7.76;55.99;97681.19;5001007;28;20356;-58
2022/12/06 07:11:08;;;;;;;8.30;6.77;;;4.10;99.90;;;7.74;56.10;97684.97;5000720;28;20046;-56
2022/12/06 07:13:40;;;;;;;6.93;5.37;;;4.10;99.90;;;7.79;55.76;97690.66;5001071;28;20052;-59
2022/12/06 07:16:15;;;;;;;8.83;5.37;;;4.20;99.90;;;7.84;55.67;97686.63;5001279;28;20392;-59
2022/12/06 07:18:43;;;;;;;8.67;5.67;;;4.30;99.90;;;7.85;55.68;97680.34;5001979;28;20046;-59
2022/12/06 07:21:15;;;;;;;7.43;5.53;;;4.30;99.90;;;7.86;55.61;97689.13;5001387;28;20348;-58
2022/12/06 07:23:43;;;;;;;8.03;6.03;;;4.20;99.90;;;7.83;55.63;97689.41;5000919;28;20256;-59
2022/12/06 07:26:15;;;;;;;10.07;6.13;;;4.20;99.90;;;7.85;55.91;97692.75;5000930;28;20042;-57
2022/12/06 07:28:46;;;;;;;7.47;5.57;;;4.20;99.90;;;7.86;55.85;97689.13;5002091;28;20182;-58
2022/12/06 07:31:16;;;;;;;6.87;5.43;;;4.20;99.90;;;7.80;55.60;97695.00;5000724;28;20055;-58
2022/12/06 07:33:46;;;;;;;9.47;5.40;;;4.10;99.90;;;7.78;55.80;97689.00;5005853;28;20054;-58
2022/12/06 07:36:14;;;;;;;8.70;5.47;;;4.10;99.90;;;7.78;55.65;97687.19;5004436;28;20050;-58
2022/12/06 07:38:46;;;;;;;7.33;5.60;;;4.10;99.90;;;7.79;55.65;97691.53;5001749;28;20046;-58
2022/12/06 07:46:48;;;;;;;9.30;5.50;;;4.10;99.90;;;7.76;56.29;97691.81;4999852;28;20053;-59
2022/12/06 07:49:17;;;;;;;6.60;4.70;;;4.10;99.90;;;7.78;55.89;97683.72;5005229;28;20058;-59
2022/12/06 07:51:46;;;;;;;8.47;5.97;;;4.20;99.90;;;7.78;55.75;97687.19;5004121;28;20048;-58
2022/12/06 07:54:14;;;;;;;6.47;5.20;;;4.10;99.90;;;7.76;55.90;97694.44;5005090;28;20048;-58
2022/12/06 07:56:43;;;;;;;9.63;6.03;;;4.10;99.90;;;7.80;55.84;97684.41;5005350;28;20076;-59
2022/12/06 07:59:11;;;;;;;8.03;5.43;;;4.20;99.90;;;7.80;56.12;97693.19;5004890;28;20034;-58
2022/12/06 08:01:40;;;;;;;7.93;5.93;;;4.20;99.90;;;7.84;56.02;97694.56;5004704;28;20042;-57
2022/12/06 08:04:08;;;;;;;9.97;5.93;;;4.20;99.90;;;7.75;56.43;97694.59;5003119;28;20252;-59
2022/12/06 08:06:36;;;;;;;8.97;5.63;;;4.10;99.90;;;7.71;56.67;97691.38;5004852;28;20054;-59
2022/12/06 08:09:05;;;;;;;8.97;5.80;;;4.10;99.90;;;7.70;56.44;97684.44;5004937;28;20046;-58
2022/12/06 08:11:34;;;;;;;9.47;6.83;;;4.10;99.90;;;7.68;56.82;97684.56;5004283;28;20054;-57
2022/12/06 08:14:03;;;;;;;11.57;6.93;;;4.10;99.90;;;7.52;56.90;97692.22;5003810;28;20345;-58
2022/12/06 08:16:31;;;;;;;10.10;7.20;;;4.00;99.90;;;7.63;56.70;97689.44;4996926;28;20046;-55
2022/12/06 08:18:59;;;;;;;9.17;6.10;;;4.00;99.90;;;7.55;57.08;97697.25;5004431;28;20050;-55
2022/12/06 08:21:28;;;;;;;9.07;6.13;;;4.00;99.90;;;7.60;57.27;97688.88;5003210;28;20052;-53
2022/12/06 08:23:56;;;;;;;11.87;6.73;;;4.00;99.90;;;7.57;56.95;97686.53;5003727;28;20044;-54
2022/12/06 08:26:24;;;;;;;8.90;7.00;;;3.90;99.90;;;7.59;57.36;97688.06;5004519;28;20073;-51
2022/12/06 08:28:51;;;;;;;12.10;7.87;;;3.90;99.90;;;7.39;57.55;97687.25;5003442;28;20046;-55
2022/12/06 08:31:22;;;;;;;10.60;7.43;;;3.90;99.90;;;7.53;57.38;97687.78;5004337;28;20046;-53
2022/12/06 08:33:51;;;;;;;11.67;7.60;;;4.00;99.90;;;7.58;57.05;97681.09;5003511;28;20046;-55
2022/12/06 08:36:21;;;;;;;13.53;8.10;;;4.00;99.90;;;7.66;56.91;97693.63;5019191;28;20042;-53
2022/12/06 08:38:50;;;;;;;13.40;9.33;;;4.10;99.90;;;7.69;56.82;97685.38;5003264;28;20053;-54
2022/12/06 08:44:11;;;;;;;15.07;8.57;;;4.10;99.90;;;7.66;56.95;97691.81;5002505;28;20102;-55
2022/12/06 08:46:39;;;;;;;14.20;9.17;;;4.10;99.90;;;7.65;57.57;97691.94;5003319;28;20043;-54
2022/12/06 08:49:08;;;;;;;12.30;8.23;;;4.10;99.90;;;7.64;56.90;97687.66;5004039;28;20248;-52
2022/12/06 08:51:36;;;;;;;14.33;9.40;;;4.10;99.90;;;7.64;57.31;97687.66;5002809;28;20053;-50
2022/12/06 08:54:06;;;;;;;14.93;9.47;;;4.10;99.90;;;7.68;57.06;97695.16;5004062;28;20048;-51
2022/12/06 08:56:36;;;;;;;15.77;9.67;;;4.10;99.90;;;7.55;57.67;97693.78;4995255;28;20363;-54
2022/12/06 08:59:04;;;;;;;15.90;8.90;;;4.00;99.90;;;7.54;58.02;97700.91;5002829;28;20237;-55
2022/12/06 09:01:33;;;;;;;14.17;9.77;;;4.10;99.90;;;7.56;57.76;97704.25;5003479;28;20069;-51
2022/12/06 09:04:07;;;;;;;15.10;10.63;;;4.10;99.90;;;6.99;59.56;97700.59;5002159;28;20241;-52
2022/12/06 09:06:40;;;;;;;15.30;10.47;;;3.90;99.90;;;6.79;60.38;97702.38;4994965;28;20046;-55
2022/12/06 09:09:10;;;;;;;15.48;9.85;;;3.80;99.90;;;6.82;59.63;97697.63;5003772;28;20046;-53
2022/12/06 09:11:39;;;;;;;17.43;11.13;;;3.80;99.90;;;7.19;58.49;97701.44;5002397;28;20050;-54
2022/12/06 09:14:11;;;;;;;18.27;10.60;;;3.90;99.90;;;7.28;58.51;97696.16;5003606;28;20352;-55
2022/12/06 09:16:46;;;;;;;17.13;10.33;;;3.90;99.90;;;6.93;59.63;97704.63;4996544;28;20060;-53
2022/12/06 09:19:14;;;;;;;16.30;10.83;;;3.90;99.90;;;7.11;59.27;97699.47;5003403;28;20046;-54
2022/12/06 09:21:43;;;;;;;18.37;10.93;;;3.90;99.90;;;7.08;59.47;97708.56;5002547;28;20046;-55
2022/12/06 09:24:15;;;;;;;17.23;10.83;;;3.90;99.90;;;6.84;60.17;97698.34;5002398;28;20041;-55
2022/12/06 09:26:43;;;;;;;21.37;13.67;;;3.80;99.90;;;7.13;59.59;97700.19;5002518;28;20052;-54
2022/12/06 09:29:12;;;;;;;16.87;10.73;;;3.80;99.90;;;6.83;60.62;97709.91;5002252;28;20044;-53
2022/12/06 09:31:40;;;;;;;16.37;9.10;;;3.80;99.90;;;6.73;60.70;97706.41;5002118;28;20042;-51
2022/12/06 09:34:10;;;;;;;12.87;8.10;;;3.70;99.90;;;6.72;60.62;97706.53;5003837;28;20236;-55
2022/12/06 09:36:49;;;;;;;15.23;8.87;;;3.70;99.90;;;6.65;61.01;97706.22;4994200;28;20046;-52
2022/12/06 09:39:26;;;;;;;14.13;9.27;;;3.70;99.90;;;6.82;60.44;97712.69;5002039;28;20042;-55
2022/12/06 09:42:36;;;;;;;12.33;7.70;;;3.70;99.90;;;6.90;60.92;97705.75;5003340;28;20046;-54
2022/12/06 09:45:28;;;;;;;11.40;7.07;;;3.70;99.90;;;6.72;61.48;97717.13;4999071;28;20244;-53
2022/12/06 09:48:36;;;;;;;10.10;6.43;;;3.70;99.90;;;6.54;61.16;97709.81;4997208;28;20047;-52
2022/12/06 09:51:30;;;;;;;9.00;6.07;;;3.70;99.90;;;6.44;62.30;97711.59;4998522;28;20056;-58
2022/12/06 09:54:19;;;;;;;7.40;4.65;;;3.60;99.90;;;6.83;60.71;97703.78;5011912;28;20046;-58
2022/12/06 09:57:00;;;;;;;7.83;4.47;;;3.70;99.90;;;6.42;62.35;97710.91;4996591;28;20052;-58
2022/12/06 10:00:02;;;;;;;9.33;6.30;;;3.70;99.90;;;6.37;62.19;97708.63;5001400;28;20046;-56
2022/12/06 10:03:14;;;;;;;9.50;5.37;;;3.70;99.90;;;6.79;61.59;97702.38;4993638;28;20248;-57
2022/12/06 10:06:01;;;;;;;11.97;6.67;;;3.70;99.90;;;6.82;61.31;97705.56;4994771;28;20045;-57
2022/12/06 10:09:13;;;;;;;10.57;6.13;;;3.70;99.90;;;6.94;60.93;97708.09;5002903;28;20061;-58
2022/12/06 10:12:06;;;;;;;11.77;7.30;;;3.80;99.90;;;7.07;60.82;97706.03;4995197;28;20053;-58
2022/12/06 10:14:40;;;;;;;12.47;8.43;;;3.90;99.90;;;7.10;60.79;97701.31;5002599;28;20042;-58
2022/12/06 10:17:30;;;;;;;12.00;6.78;;;3.90;99.90;;;6.59;62.47;97702.34;5002834;28;20098;-53
2022/12/06 10:20:00;;;;;;;14.80;7.83;;;3.70;99.90;;;7.07;61.35;97696.28;4995929;28;20042;-53
2022/12/06 10:23:11;;;;;;;13.30;7.40;;;3.90;99.90;;;6.97;61.26;97699.91;5002529;28;20248;-52
2022/12/06 10:26:00;;;;;;;10.20;6.50;;;3.90;99.90;;;6.74;62.41;97694.84;4994802;28;20045;-53
2022/12/06 10:28:43;;;;;;;11.80;6.87;;;3.80;99.90;;;6.82;62.06;97689.69;5002553;28;20057;-54
2022/12/06 10:31:37;;;;;;;11.03;6.30;;;3.70;99.90;;;6.56;62.52;97692.00;5001985;28;20054;-52
2022/12/06 10:34:22;;;;;;;11.88;6.60;;;3.60;99.90;;;6.93;61.60;97686.09;4998208;28;20072;-55
2022/12/06 10:37:27;;;;;;;10.67;5.97;;;3.70;99.90;;;6.77;62.27;97685.81;4995026;28;20194;-54
2022/12/06 10:40:14;;;;;;;9.47;6.03;;;3.80;99.90;;;6.96;61.77;97688.47;4996847;28;20038;-55
2022/12/06 10:43:15;;;;;;;6.67;4.60;;;3.80;99.90;;;6.92;61.47;97683.59;5001195;28;20042;-54
2022/12/06 10:49:25;;;;;;;8.70;4.80;;;3.70;99.90;;;6.48;62.27;97678.63;4995038;28;20044;-51
2022/12/06 10:52:28;;;;;;;10.30;5.70;;;3.60;99.90;;;6.93;61.96;97672.03;4996751;28;20062;-54
2022/12/06 10:55:08;;;;;;;9.77;5.33;;;3.70;99.90;;;6.99;61.15;97676.78;5011505;28;20056;-52
2022/12/06 10:58:07;;;;;;;7.77;4.97;;;3.80;99.90;;;6.92;61.29;97671.22;5017459;28;20053;-53
2022/12/06 11:01:01;;;;;;;8.63;5.80;;;3.70;99.90;;;6.65;62.44;97666.53;5001821;28;20241;-52
2022/12/06 11:03:58;;;;;;;10.18;6.05;;;3.60;99.90;;;6.92;61.26;97668.56;5017242;28;20071;-54
2022/12/06 11:06:35;;;;;;;8.30;4.80;;;3.70;99.90;;;6.73;62.55;97676.44;5001850;28;20046;-53
2022/12/06 11:09:30;;;;;;;9.00;5.67;;;3.60;99.90;;;6.50;62.93;97684.63;5005412;28;20221;-51
2022/12/06 11:11:58;;;;;;;7.30;4.10;;;3.60;99.90;;;6.44;63.38;97682.50;5000471;28;20133;-52
2022/12/06 11:14:42;;;;;;;6.93;4.40;;;3.50;99.90;;;6.23;64.01;97675.47;5005779;28;20046;-52
2022/12/06 11:17:25;;;;;;;8.30;5.03;;;3.40;99.90;;;6.48;63.36;97670.69;5005055;28;20051;-55
2022/12/06 11:20:38;;;;;;;8.20;5.43;;;3.50;99.90;;;6.48;63.74;97665.41;4998190;28;20042;-54
2022/12/06 11:23:33;;;;;;;6.97;4.33;;;3.50;99.90;;;6.55;63.05;97666.50;5001753;28;20042;-50
2022/12/06 11:26:32;;;;;;;;;;;3.50;99.90;;;6.60;63.40;97672.25;5014758;28;20046;-53
2022/12/06 11:29:06;;;;;;;9.80;5.30;;;3.60;99.90;;;6.61;63.04;97675.72;5015426;28;19918;-54
2022/12/06 11:31:54;;;;;;;8.27;5.55;;;3.50;99.90;;;6.33;64.00;97678.16;5005380;28;20053;-54